Time;durP1;ratioP1;P1;durP2;ratioP2;P2;SDS_P1;SDS_P2;PMS_P1;PMS_P2;Temp;Humidity;BMP_temperature;BMP_pressure;BME280_temperature;BME280_humidity;BME280_pressure;Samples;Min_cycle;Max_cycle;Signal;HPM_P1;HPM_P2
2021/01/18 00:02:03;;;;;;;20.85;11.13;;;-1.70;75.20;;;-3.16;60.39;95202.56;5051387;28;20200;-85
2021/01/18 00:04:30;;;;;;;20.33;11.05;;;-1.70;75.20;;;-3.19;60.39;95198.47;5034587;28;20232;-85
2021/01/18 00:06:57;;;;;;;19.52;10.27;;;-1.70;75.30;;;-3.15;60.21;95207.63;5037535;28;20665;-84
2021/01/18 00:09:25;;;;;;;19.90;10.98;;;-1.70;75.20;;;-3.15;60.65;95201.66;5038077;28;20295;-85
2021/01/18 00:11:52;;;;;;;18.63;10.35;;;-1.70;75.20;;;-3.19;60.36;95198.47;5037833;28;20204;-85
2021/01/18 00:14:18;;;;;;;15.50;9.50;;;-1.70;75.20;;;-3.20;60.40;95209.63;5037818;28;20224;-85
2021/01/18 00:16:45;;;;;;;18.00;9.85;;;-1.80;75.20;;;-3.19;60.23;95223.31;5053455;28;20251;-84
2021/01/18 00:19:12;;;;;;;16.58;9.88;;;-1.80;75.10;;;-3.26;60.34;95208.31;5037759;28;20191;-84
2021/01/18 00:21:46;;;;;;;16.20;9.98;;;-1.80;75.10;;;-3.23;60.20;95210.66;5021312;28;20223;-85
2021/01/18 00:24:13;;;;;;;16.35;9.88;;;-1.80;75.00;;;-3.25;60.28;95209.97;5036936;28;20200;-82
2021/01/18 00:26:40;;;;;;;17.10;10.07;;;-1.80;75.20;;;-3.24;60.26;95203.88;5054408;28;20196;-85
2021/01/18 00:29:08;;;;;;;14.65;8.52;;;-1.80;75.10;;;-3.23;60.21;95200.41;5053844;28;20227;-85
2021/01/18 00:31:34;;;;;;;14.80;8.98;;;-1.80;75.10;;;-3.23;60.15;95197.84;5053908;28;20226;-85
2021/01/18 00:34:01;;;;;;;16.60;9.65;;;-1.80;75.20;;;-3.23;60.25;95199.59;5054405;28;20431;-85
2021/01/18 00:36:28;;;;;;;14.57;8.48;;;-1.80;75.20;;;-3.27;60.14;95185.31;5037489;28;20236;-83
2021/01/18 00:38:56;;;;;;;16.20;9.18;;;-1.80;75.10;;;-3.22;60.16;95194.34;5037713;28;20282;-84
2021/01/18 00:41:23;;;;;;;15.30;8.70;;;-1.80;75.20;;;-3.22;60.25;95191.78;5053727;28;20764;-85
2021/01/18 00:43:51;;;;;;;17.42;10.43;;;-1.80;75.20;;;-3.24;60.08;95185.94;5053811;28;20276;-84
2021/01/18 00:46:18;;;;;;;15.07;9.27;;;-1.80;75.10;;;-3.20;60.64;95191.69;5053882;28;20289;-84
2021/01/18 00:48:47;;;;;;;18.00;10.25;;;-1.80;75.20;;;-3.20;60.11;95190.88;5037890;28;20212;-84
2021/01/18 00:51:14;;;;;;;18.13;9.85;;;-1.80;75.20;;;-3.18;60.09;95182.16;5053054;28;20306;-85
2021/01/18 00:53:42;;;;;;;15.85;9.65;;;-1.80;75.20;;;-3.22;59.89;95180.72;5053538;28;20200;-84
2021/01/18 00:56:12;;;;;;;17.65;10.43;;;-1.80;75.20;;;-3.20;60.12;95183.19;5036663;28;20310;-85
2021/01/18 00:58:49;;;;;;;16.08;9.00;;;-1.80;75.10;;;-3.16;60.32;95193.16;5051156;28;20658;-84
2021/01/18 01:01:34;;;;;;;16.10;9.63;;;-1.80;75.20;;;-3.18;60.40;95186.47;5036130;28;20208;-84
2021/01/18 01:04:03;;;;;;;17.38;10.05;;;-1.80;75.10;;;-3.21;60.27;95179.78;5034754;28;20246;-85
2021/01/18 01:06:34;;;;;;;13.70;9.07;;;-1.80;75.10;;;-3.15;60.27;95181.97;5020253;28;20319;-85
2021/01/18 01:09:03;;;;;;;17.23;9.40;;;-1.80;75.20;;;-3.16;60.25;95179.47;5036476;28;20279;-85
2021/01/18 01:11:31;;;;;;;15.88;8.77;;;-1.70;75.20;;;-3.08;60.46;95179.81;5019322;28;20212;-85
2021/01/18 01:13:58;;;;;;;19.67;10.73;;;-1.80;75.20;;;-3.12;60.41;95176.63;5036835;28;20287;-84
2021/01/18 01:16:26;;;;;;;17.90;9.95;;;-1.80;75.10;;;-3.13;60.33;95182.66;5036752;28;20223;-84
2021/01/18 01:18:54;;;;;;;16.63;9.27;;;-1.80;75.10;;;-3.09;60.38;95180.72;5020249;28;20654;-85
2021/01/18 01:21:21;;;;;;;17.70;10.10;;;-1.70;75.20;;;-3.15;60.33;95174.28;5052578;28;20753;-85
2021/01/18 01:23:48;;;;;;;15.82;9.40;;;-1.80;75.10;;;-3.08;60.39;95187.50;5036478;28;20605;-84
2021/01/18 01:26:15;;;;;;;17.45;10.10;;;-1.80;75.10;;;-3.08;60.29;95175.47;5052200;28;20223;-85
2021/01/18 01:28:42;;;;;;;17.77;10.23;;;-1.80;75.10;;;-3.12;60.31;95174.06;5049666;28;20232;-84
2021/01/18 01:31:09;;;;;;;14.85;9.35;;;-1.70;75.20;;;-3.12;60.51;95163.78;5060494;28;20314;-85
2021/01/18 01:33:36;;;;;;;12.45;8.23;;;-1.70;75.20;;;-3.10;60.37;95155.97;5052857;28;20204;-84
2021/01/18 01:36:03;;;;;;;14.18;8.60;;;-1.70;75.30;;;-3.04;60.55;95162.47;5052419;28;20319;-84
2021/01/18 01:38:31;;;;;;;13.02;7.72;;;-1.80;75.20;;;-3.04;60.38;95157.31;5035987;28;20630;-84
2021/01/18 01:40:59;;;;;;;13.30;7.88;;;-1.70;75.30;;;-3.01;60.49;95155.38;5052111;28;20216;-84
2021/01/18 01:43:26;;;;;;;13.52;8.07;;;-1.70;75.30;;;-3.02;60.37;95155.50;5036054;28;20196;-84
2021/01/18 01:45:53;;;;;;;13.65;8.10;;;-1.70;75.40;;;-2.98;60.38;95162.03;5052548;28;20310;-85
2021/01/18 01:48:21;;;;;;;13.90;7.53;;;-1.70;75.30;;;-2.97;60.42;95154.25;5036397;28;20214;-84
2021/01/18 01:50:48;;;;;;;10.57;7.10;;;-1.70;75.30;;;-2.98;60.48;95152.63;5020020;28;20395;-84
2021/01/18 01:53:35;;;;;;;13.82;7.72;;;-1.70;75.30;;;-2.97;60.35;95150.88;5035706;28;20203;-84
2021/01/18 01:56:03;;;;;;;11.93;7.07;;;-1.70;75.30;;;-2.98;60.42;95146.66;5018663;28;20763;-84
2021/01/18 01:58:29;;;;;;;14.07;7.68;;;-1.70;75.30;;;-2.92;60.34;95154.78;5052087;28;20207;-84
2021/01/18 02:00:58;;;;;;;13.07;7.95;;;-1.60;75.40;;;-2.95;60.18;95149.03;5068554;28;20231;-84
2021/01/18 02:03:45;;;;;;;14.85;8.70;;;-1.70;75.30;;;-2.91;60.36;95156.38;5050721;28;20196;-83
2021/01/18 02:06:12;;;;;;;13.48;7.43;;;-1.60;75.30;;;-2.93;60.23;95158.25;5052354;28;20255;-85
2021/01/18 02:08:39;;;;;;;13.05;7.28;;;-1.60;75.40;;;-2.92;60.74;95149.63;5035783;28;20192;-84
2021/01/18 02:11:06;;;;;;;13.48;7.82;;;-1.60;75.30;;;-2.86;60.54;95155.28;5035394;28;20224;-84
2021/01/18 02:14:21;;;;;;;11.50;7.07;;;-1.60;75.40;;;-2.91;60.35;95137.63;5034372;28;20199;-84
2021/01/18 02:17:17;;;;;;;10.98;6.65;;;-1.60;75.30;;;-2.87;60.53;95145.94;5016693;28;20230;-84
2021/01/18 02:20:23;;;;;;;13.20;7.80;;;-1.60;75.30;;;-2.87;60.34;95135.66;5035792;28;20408;-85
2021/01/18 02:23:27;;;;;;;12.27;7.40;;;-1.60;75.20;;;-2.87;60.46;95128.78;5032197;28;20204;-84
2021/01/18 02:26:05;;;;;;;16.27;8.73;;;-1.50;75.20;;;-2.90;60.47;95141.81;5048220;28;20228;-84
2021/01/18 02:28:57;;;;;;;12.07;7.63;;;-1.50;75.40;;;-2.88;60.56;95142.56;5047346;28;20196;-84
2021/01/18 02:32:07;;;;;;;14.25;8.30;;;-1.50;75.30;;;-2.90;60.44;95145.19;5032078;28;20270;-84
2021/01/18 02:35:01;;;;;;;13.05;7.97;;;-1.50;75.40;;;-2.91;60.86;95140.19;5033540;28;20225;-85
2021/01/18 02:37:28;;;;;;;14.60;7.75;;;-1.50;75.40;;;-2.87;60.64;95136.47;5048294;28;20212;-84
2021/01/18 02:40:11;;;;;;;14.63;7.45;;;-1.60;75.50;;;-2.82;60.58;95133.59;5068105;28;20226;-85
2021/01/18 02:42:47;;;;;;;11.57;7.68;;;-1.50;75.50;;;-2.80;60.62;95137.69;5035293;28;20202;-84
2021/01/18 02:45:16;;;;;;;13.32;7.72;;;-1.50;75.50;;;-2.76;60.91;95139.16;5035461;28;20215;-85
2021/01/18 02:47:46;;;;;;;11.70;7.57;;;-1.50;75.60;;;-2.74;60.46;95123.63;5035622;28;20212;-84
2021/01/18 02:50:14;;;;;;;12.52;8.00;;;-1.50;75.60;;;-2.75;61.05;95115.13;5053003;28;20218;-85
2021/01/18 02:52:42;;;;;;;11.75;7.13;;;-1.50;75.60;;;-2.72;60.74;95121.78;5042001;28;20195;-84
2021/01/18 02:55:11;;;;;;;12.98;8.02;;;-1.40;75.70;;;-2.66;60.97;95134.22;5025045;28;20216;-85
2021/01/18 02:57:41;;;;;;;11.90;7.18;;;-1.50;75.60;;;-2.69;60.67;95118.19;5041483;28;20212;-85
2021/01/18 03:00:13;;;;;;;13.60;7.57;;;-1.40;75.60;;;-2.61;60.53;95133.91;5024548;28;20237;-85
2021/01/18 03:03:08;;;;;;;17.33;9.10;;;-1.40;75.60;;;-2.63;60.44;95125.47;5041694;28;20219;-85
2021/01/18 03:05:49;;;;;;;13.90;7.93;;;-1.40;75.50;;;-2.67;60.66;95117.16;5058157;28;20306;-85
2021/01/18 03:08:40;;;;;;;13.90;8.30;;;-1.40;75.50;;;-2.63;60.48;95128.03;5025739;28;20253;-85
2021/01/18 03:11:16;;;;;;;12.75;8.38;;;-1.30;75.50;;;-2.63;60.57;95128.84;5041197;28;20219;-85
2021/01/18 03:14:10;;;;;;;11.80;7.40;;;-1.30;75.60;;;-2.61;60.60;95128.75;5041780;28;20667;-84
2021/01/18 03:16:44;;;;;;;13.13;7.60;;;-1.30;75.60;;;-2.61;60.58;95123.63;5057896;28;20223;-85
2021/01/18 03:19:13;;;;;;;13.70;8.05;;;-1.30;75.50;;;-2.64;60.67;95116.94;5041731;28;20634;-85
2021/01/18 03:21:47;;;;;;;11.90;7.18;;;-1.30;75.60;;;-2.60;60.63;95123.50;5057841;28;20246;-84
2021/01/18 03:24:22;;;;;;;13.75;7.75;;;-1.30;75.70;;;-2.58;60.80;95124.22;5058383;28;20737;-84
2021/01/18 03:26:50;;;;;;;14.45;8.38;;;-1.30;75.70;;;-2.55;60.74;95128.34;5041373;28;20203;-85
2021/01/18 03:29:17;;;;;;;17.10;8.15;;;-1.30;75.70;;;-2.55;60.66;95125.78;5041119;28;20204;-84
2021/01/18 03:31:44;;;;;;;12.48;7.57;;;-1.30;75.70;;;-2.57;60.60;95109.63;5074513;28;20211;-85
2021/01/18 03:34:11;;;;;;;11.93;7.30;;;-1.20;75.70;;;-2.57;60.43;95107.88;5024339;28;20188;-85
2021/01/18 03:36:38;;;;;;;11.88;7.65;;;-1.30;75.60;;;-2.52;60.61;95114.47;5041025;28;20224;-85
2021/01/18 03:39:05;;;;;;;12.20;7.82;;;-1.20;75.70;;;-2.50;60.77;95105.72;5057685;28;20290;-85
2021/01/18 03:41:31;;;;;;;12.30;7.75;;;-1.20;75.70;;;-2.50;60.17;95099.75;5041078;28;20292;-85
2021/01/18 03:43:59;;;;;;;15.95;8.68;;;-1.30;75.60;;;-2.54;60.88;95085.50;5058075;28;20196;-85
2021/01/18 03:46:27;;;;;;;13.45;7.93;;;-1.20;75.70;;;-2.50;60.71;95100.59;5040934;28;20302;-85
2021/01/18 03:48:53;;;;;;;13.40;7.80;;;-1.20;75.70;;;-2.44;60.86;95101.88;5057852;28;20208;-85
2021/01/18 03:51:28;;;;;;;13.43;7.45;;;-1.20;75.80;;;-2.47;60.61;95097.78;5041661;28;20216;-85
2021/01/18 03:53:56;;;;;;;15.88;8.80;;;-1.20;75.70;;;-2.48;60.72;95093.59;5057947;28;20250;-85
2021/01/18 03:56:23;;;;;;;15.70;7.95;;;-1.20;75.70;;;-2.44;60.88;95096.75;5056954;28;20216;-85
2021/01/18 03:58:50;;;;;;;11.75;7.53;;;-1.20;75.70;;;-2.42;60.68;95095.75;5038415;28;20208;-84
2021/01/18 04:01:17;;;;;;;12.45;7.38;;;-1.20;75.70;;;-2.41;60.80;95088.84;5037763;28;20223;-84
2021/01/18 04:03:44;;;;;;;16.00;7.65;;;-1.20;75.70;;;-2.37;60.68;95089.44;5050353;28;20204;-83
2021/01/18 04:06:11;;;;;;;14.02;7.30;;;-1.20;75.70;;;-2.41;60.78;95083.69;5070431;28;20303;-82
2021/01/18 04:08:39;;;;;;;12.88;7.53;;;-1.10;75.80;;;-2.34;60.89;95084.91;5037691;28;20226;-85
2021/01/18 04:11:06;;;;;;;13.85;7.53;;;-1.10;75.80;;;-2.33;60.59;95084.00;5019589;28;20220;-84
2021/01/18 04:13:33;;;;;;;13.63;7.90;;;-1.10;75.80;;;-2.34;60.94;95079.78;5062089;28;20200;-85
2021/01/18 04:16:00;;;;;;;15.18;8.63;;;-1.10;75.80;;;-2.35;60.70;95073.00;5053522;28;20244;-84
2021/01/18 04:18:28;;;;;;;13.00;8.05;;;-1.10;75.80;;;-2.29;60.82;95071.75;5036012;28;20230;-85
2021/01/18 04:20:55;;;;;;;13.23;7.35;;;-1.10;75.70;;;-2.28;60.71;95070.81;5038292;28;20346;-84
2021/01/18 04:23:22;;;;;;;10.45;6.93;;;-1.10;75.70;;;-2.32;60.56;95070.22;5048726;28;20594;-84
2021/01/18 04:25:49;;;;;;;11.98;7.03;;;-1.10;75.70;;;-2.27;60.85;95077.56;5036148;28;20223;-84
2021/01/18 04:28:18;;;;;;;10.82;6.60;;;-1.10;75.70;;;-2.28;60.76;95079.34;5020899;28;20208;-84
2021/01/18 04:30:45;;;;;;;12.07;7.20;;;-1.00;75.80;;;-2.28;60.87;95076.78;5067081;28;20216;-84
2021/01/18 04:33:12;;;;;;;13.50;7.78;;;-1.00;75.80;;;-2.29;60.71;95070.00;5049825;28;20226;-84
2021/01/18 04:35:40;;;;;;;13.93;8.27;;;-1.00;75.80;;;-2.25;60.86;95070.59;5035808;28;20251;-84
2021/01/18 04:38:07;;;;;;;12.35;7.40;;;-1.00;75.80;;;-2.30;60.84;95058.06;5036360;28;20212;-84
2021/01/18 04:40:35;;;;;;;12.77;7.85;;;-1.00;75.80;;;-2.23;60.92;95065.34;5030437;28;20239;-84
2021/01/18 04:43:04;;;;;;;12.25;7.10;;;-1.00;75.80;;;-2.27;60.75;95060.44;5033219;28;20192;-85
2021/01/18 04:45:31;;;;;;;12.43;7.38;;;-1.00;75.80;;;-2.22;60.72;95065.25;5017546;28;20216;-83
2021/01/18 04:47:59;;;;;;;13.60;7.82;;;-1.00;75.80;;;-2.22;60.97;95066.97;5038415;28;20261;-85
2021/01/18 04:50:29;;;;;;;11.95;7.70;;;-1.00;75.80;;;-2.22;60.83;95061.84;5034304;28;20315;-84
2021/01/18 04:53:16;;;;;;;14.25;7.57;;;-0.90;75.90;;;-2.23;61.01;95062.75;5057614;28;20195;-83
2021/01/18 04:55:43;;;;;;;13.80;7.60;;;-1.00;75.70;;;-2.22;60.92;95061.84;5053992;28;20212;-83
2021/01/18 04:58:17;;;;;;;12.68;7.50;;;-0.90;75.70;;;-2.26;60.73;95059.50;5067560;28;20214;-83
2021/01/18 05:00:50;;;;;;;15.15;7.65;;;-0.90;75.80;;;-2.27;60.67;95065.56;5033834;28;20230;-83
2021/01/18 05:03:25;;;;;;;13.88;7.50;;;-1.00;75.70;;;-2.22;60.69;95069.53;5049914;28;20196;-84
2021/01/18 05:05:52;;;;;;;14.20;8.10;;;-1.00;75.70;;;-2.21;60.67;95073.75;5049869;28;20220;-84
2021/01/18 05:09:17;;;;;;;14.93;8.27;;;-0.90;75.80;;;-2.22;60.76;95065.25;5068233;28;20296;-83
2021/01/18 05:11:49;;;;;;;12.80;7.40;;;-1.00;75.60;;;-2.24;60.94;95061.97;5061913;28;20220;-84
2021/01/18 05:14:17;;;;;;;12.70;8.15;;;-0.90;75.70;;;-2.24;61.34;95064.53;5050577;28;20661;-84
2021/01/18 05:16:49;;;;;;;11.50;7.55;;;-0.90;75.70;;;-2.22;60.96;95064.41;5053271;28;20598;-84
2021/01/18 05:19:19;;;;;;;11.93;7.75;;;-0.90;75.70;;;-2.20;60.85;95070.28;5052034;28;20589;-84
2021/01/18 05:21:48;;;;;;;12.52;7.32;;;-1.00;75.70;;;-2.19;60.98;95061.63;5035300;28;20519;-84
2021/01/18 05:24:18;;;;;;;12.43;7.45;;;-1.00;75.80;;;-2.18;60.83;95066.66;5051648;28;20620;-84
2021/01/18 05:27:02;;;;;;;12.50;7.07;;;-1.00;75.80;;;-2.15;61.04;95063.88;5051529;28;20622;-84
2021/01/18 05:29:32;;;;;;;13.65;7.35;;;-0.90;75.90;;;-2.17;60.87;95060.59;5034948;28;20223;-85
2021/01/18 05:31:59;;;;;;;14.07;7.88;;;-0.90;75.90;;;-2.11;60.74;95064.47;5051571;28;20278;-84
2021/01/18 05:34:28;;;;;;;12.27;7.13;;;-0.90;75.90;;;-2.11;60.91;95056.78;5051739;28;20214;-84
2021/01/18 05:36:56;;;;;;;13.30;7.88;;;-0.90;75.90;;;-2.11;60.83;95056.78;5052723;28;20212;-84
2021/01/18 05:39:32;;;;;;;14.82;8.45;;;-0.90;76.00;;;-2.10;60.95;95056.66;5068446;28;20234;-85
2021/01/18 05:41:59;;;;;;;14.52;7.93;;;-0.90;75.90;;;-2.04;61.07;95060.50;5035691;28;20261;-84
2021/01/18 05:44:35;;;;;;;11.95;7.05;;;-0.90;75.90;;;-2.07;60.63;95063.31;5036177;28;20211;-84
2021/01/18 05:47:10;;;;;;;14.88;8.18;;;-0.80;76.00;;;-2.05;61.06;95058.91;5052772;28;20183;-84
2021/01/18 05:49:43;;;;;;;18.58;9.88;;;-0.80;76.00;;;-2.07;60.83;95057.38;5036078;28;20219;-84
2021/01/18 05:52:30;;;;;;;13.48;8.35;;;-0.80;76.00;;;-2.01;61.06;95062.06;5036243;28;20196;-84
2021/01/18 05:55:26;;;;;;;13.13;7.68;;;-0.80;76.10;;;-1.98;60.95;95074.69;5052452;28;20288;-84
2021/01/18 05:57:55;;;;;;;12.95;7.97;;;-0.80;76.00;;;-1.96;60.90;95073.63;5052233;28;20215;-83
2021/01/18 06:00:37;;;;;;;16.15;9.02;;;-0.70;76.10;;;-1.95;61.10;95072.72;5035033;28;20224;-85
2021/01/18 06:03:09;;;;;;;13.27;7.93;;;-0.70;76.10;;;-1.90;60.93;95072.38;5035199;28;20676;-84
2021/01/18 06:05:41;;;;;;;11.88;7.32;;;-0.70;76.10;;;-1.85;60.89;95069.47;5035669;28;20218;-84
2021/01/18 06:08:13;;;;;;;15.00;7.72;;;-0.70;76.10;;;-1.82;60.91;95074.38;5035426;28;20253;-84
2021/01/18 06:10:46;;;;;;;11.38;7.15;;;-0.70;76.20;;;-1.78;60.88;95068.91;5035311;28;20216;-84
2021/01/18 06:13:27;;;;;;;13.63;7.53;;;-0.70;76.20;;;-1.78;60.84;95060.38;5052003;28;20216;-84
2021/01/18 06:16:01;;;;;;;12.88;7.70;;;-0.60;76.20;;;-1.73;60.80;95062.59;5052344;28;20222;-84
2021/01/18 06:18:30;;;;;;;13.57;6.90;;;-0.60;76.30;;;-1.70;61.18;95072.69;5068295;28;20224;-84
2021/01/18 06:20:57;;;;;;;11.98;6.45;;;-0.60;76.20;;;-1.71;61.14;95071.88;5034958;28;20234;-83
2021/01/18 06:23:25;;;;;;;12.43;7.32;;;-0.50;76.30;;;-1.66;61.00;95071.50;5034986;28;20195;-84
2021/01/18 06:25:53;;;;;;;12.27;6.90;;;-0.60;76.20;;;-1.64;60.89;95072.22;5034638;28;20224;-84
2021/01/18 06:28:24;;;;;;;12.57;7.75;;;-0.50;76.20;;;-1.64;60.77;95067.88;5035594;28;20208;-84
2021/01/18 06:31:05;;;;;;;13.25;7.93;;;-0.50;76.20;;;-1.63;60.91;95076.44;5068075;28;20220;-84
2021/01/18 06:33:44;;;;;;;11.35;6.90;;;-0.50;76.20;;;-1.63;61.08;95084.97;5019193;28;20253;-84
2021/01/18 06:36:16;;;;;;;11.68;6.85;;;-0.50;76.20;;;-1.61;61.07;95085.69;5067935;28;20223;-83
2021/01/18 06:38:58;;;;;;;11.30;6.43;;;-0.50;76.20;;;-1.64;61.06;95078.19;5035071;28;20226;-84
2021/01/18 06:41:30;;;;;;;10.95;6.28;;;-0.40;76.30;;;-1.62;60.80;95085.81;5067910;28;20239;-84
2021/01/18 06:43:58;;;;;;;10.43;6.35;;;-0.50;76.20;;;-1.59;60.99;95093.28;5035421;28;20212;-84
2021/01/18 06:46:30;;;;;;;11.85;6.60;;;-0.40;76.30;;;-1.61;61.14;95084.88;5051984;28;20316;-84
2021/01/18 06:48:58;;;;;;;11.10;6.25;;;-0.40;76.30;;;-1.56;60.87;95089.66;5034805;28;20222;-85
2021/01/18 06:51:27;;;;;;;11.07;6.90;;;-0.40;76.30;;;-1.59;61.15;95090.69;5035222;28;20303;-84
2021/01/18 06:53:57;;;;;;;10.85;6.72;;;-0.40;76.30;;;-1.56;61.01;95093.06;5051692;28;20699;-85
2021/01/18 06:57:01;;;;;;;12.35;7.25;;;-0.30;76.30;;;-1.56;61.03;95102.50;5034927;28;20621;-84
2021/01/18 06:59:44;;;;;;;14.25;7.45;;;-0.40;76.20;;;-1.58;61.11;95087.19;5067854;28;20237;-85
2021/01/18 07:02:13;;;;;;;10.85;7.28;;;-0.40;76.30;;;-1.56;61.06;95092.22;5051656;28;20203;-85
2021/01/18 07:04:49;;;;;;;14.93;8.43;;;-0.40;76.20;;;-1.56;60.88;95093.06;5068462;28;20220;-85
2021/01/18 07:07:36;;;;;;;12.02;7.88;;;-0.40;76.30;;;-1.62;61.24;95076.31;5035363;28;20231;-85
2021/01/18 07:10:06;;;;;;;15.38;8.63;;;-0.40;76.30;;;-1.56;61.07;95087.91;5035566;28;20681;-85
2021/01/18 07:12:34;;;;;;;12.75;7.80;;;-0.40;76.30;;;-1.57;61.17;95082.91;5035262;28;20200;-85
2021/01/18 07:15:10;;;;;;;13.25;7.63;;;-0.40;76.30;;;-1.56;60.93;95082.78;5034824;28;20212;-86
2021/01/18 07:17:43;;;;;;;14.75;8.32;;;-0.40;76.30;;;-1.48;61.00;95089.91;5051595;28;20262;-84
2021/01/18 07:20:20;;;;;;;13.13;7.97;;;-0.30;76.40;;;-1.49;61.10;95096.00;5068295;28;20215;-85
2021/01/18 07:23:14;;;;;;;13.48;8.10;;;-0.30;76.40;;;-1.45;61.25;95097.41;5051642;28;20184;-83
2021/01/18 07:25:46;;;;;;;12.27;7.93;;;-0.30;76.40;;;-1.52;61.25;95088.50;5048999;28;20215;-83
2021/01/18 07:28:19;;;;;;;12.73;7.90;;;-0.30;76.40;;;-1.43;61.31;95099.88;5060706;28;20215;-82
2021/01/18 07:30:51;;;;;;;17.70;10.20;;;-0.30;76.50;;;-1.43;61.54;95103.25;5060560;28;20672;-84
2021/01/18 07:33:19;;;;;;;17.42;9.80;;;-0.30;76.50;;;-1.37;61.37;95102.78;5045673;28;20306;-84
2021/01/18 07:35:47;;;;;;;16.10;9.45;;;-0.20;76.60;;;-1.34;61.23;95107.72;5025899;28;20225;-84
2021/01/18 07:38:18;;;;;;;15.80;10.13;;;-0.20;76.70;;;-1.29;61.31;95113.34;5032154;28;20850;-82
2021/01/18 07:41:15;;;;;;;15.57;9.38;;;-0.20;76.70;;;-1.23;61.55;95117.22;5028565;28;20247;-83
2021/01/18 07:43:47;;;;;;;17.42;10.00;;;-0.20;76.70;;;-1.18;61.70;95107.41;5036208;28;20200;-84
2021/01/18 07:46:29;;;;;;;16.25;9.35;;;-0.10;76.80;;;-1.09;61.41;95112.81;5021697;28;20313;-84
2021/01/18 07:49:22;;;;;;;15.00;9.25;;;-0.10;76.90;;;-1.05;61.49;95104.75;5065244;28;20200;-84
2021/01/18 07:51:49;;;;;;;15.32;9.43;;;-0.10;76.90;;;-0.97;61.49;95107.53;5069276;28;20189;-84
2021/01/18 07:54:33;;;;;;;16.77;9.95;;;0.00;77.00;;;-0.94;61.17;95097.94;5018283;28;20246;-84
2021/01/18 07:57:38;;;;;;;19.25;11.13;;;0.10;77.10;;;-0.92;61.40;95109.75;5035899;28;20224;-84
2021/01/18 08:00:17;;;;;;;19.70;11.38;;;0.10;77.20;;;-0.80;61.59;95118.31;5050708;28;20243;-84
2021/01/18 08:02:48;;;;;;;19.08;11.82;;;0.20;77.30;;;-0.76;61.88;95117.13;5054351;28;20235;-84
2021/01/18 08:05:21;;;;;;;19.38;10.80;;;0.20;77.30;;;-0.68;61.74;95119.97;5036145;28;20226;-84
2021/01/18 08:08:06;;;;;;;21.83;11.77;;;0.30;77.40;;;-0.63;61.91;95121.34;5032070;28;20662;-84
2021/01/18 08:10:56;;;;;;;20.52;11.63;;;0.40;77.50;;;-0.63;61.92;95116.19;5049457;28;20730;-84
2021/01/18 08:13:44;;;;;;;20.67;12.25;;;0.40;77.50;;;-0.55;62.25;95114.69;5092928;28;20196;-84
2021/01/18 08:16:36;;;;;;;21.35;12.13;;;0.50;77.60;;;-0.51;62.08;95118.66;5077778;28;20216;-85
2021/01/18 08:19:19;;;;;;;23.38;13.23;;;0.50;78.40;;;-0.45;62.15;95129.41;5074243;28;20200;-84
2021/01/18 08:22:00;;;;;;;24.05;13.20;;;0.60;77.70;;;-0.45;62.21;95119.94;5060758;28;20586;-84
2021/01/18 08:24:29;;;;;;;22.40;13.10;;;0.60;78.50;;;-0.38;62.64;95128.00;5060539;28;20649;-84
2021/01/18 08:27:08;;;;;;;22.95;13.30;;;0.70;77.90;;;-0.35;62.80;95130.38;5068983;28;20226;-85
2021/01/18 08:29:50;;;;;;;24.13;12.82;;;0.70;77.90;;;-0.32;62.71;95124.97;5059791;28;20216;-84
2021/01/18 08:32:22;;;;;;;20.52;12.27;;;0.70;77.90;;;-0.22;62.60;95135.38;5051600;28;20199;-84
2021/01/18 08:35:05;;;;;;;24.55;13.52;;;0.80;78.00;;;-0.20;62.87;95139.47;5069626;28;20311;-84
2021/01/18 08:37:36;;;;;;;22.80;13.65;;;0.80;78.00;;;-0.14;62.66;95135.59;5052916;28;20217;-84
2021/01/18 08:40:12;;;;;;;22.80;12.98;;;0.90;78.10;;;-0.07;62.87;95138.53;5019171;28;20331;-84
2021/01/18 08:42:41;;;;;;;22.73;13.20;;;0.90;78.20;;;-0.01;62.97;95145.78;5049849;28;20215;-84
2021/01/18 08:45:20;;;;;;;23.60;14.30;;;1.00;78.20;;;0.02;62.99;95139.56;5029583;28;20216;-85
2021/01/18 08:48:03;;;;;;;22.20;12.65;;;1.00;78.20;;;0.05;62.84;95131.56;5045602;28;20503;-84
2021/01/18 08:50:46;;;;;;;22.08;12.75;;;1.10;78.30;;;0.12;62.74;95140.44;5026311;28;20220;-85
2021/01/18 08:53:42;;;;;;;20.35;12.52;;;1.10;78.30;;;0.22;62.77;95135.38;5060466;28;20214;-84
2021/01/18 08:56:21;;;;;;;20.33;11.18;;;1.20;78.40;;;0.28;63.21;95145.19;5060139;28;20311;-84
2021/01/18 08:58:48;;;;;;;21.08;12.70;;;1.20;78.40;;;0.29;63.16;95136.53;5070428;28;20238;-84
2021/01/18 09:01:21;;;;;;;19.35;11.77;;;1.30;78.40;;;0.36;62.96;95136.88;5030828;28;20307;-84
2021/01/18 09:04:07;;;;;;;20.63;11.85;;;1.30;78.50;;;0.45;62.97;95147.25;5013402;28;20232;-82
2021/01/18 09:06:35;;;;;;;22.17;11.93;;;1.40;78.50;;;0.50;62.81;95135.75;5013597;28;20201;-83
2021/01/18 09:09:09;;;;;;;20.20;11.77;;;1.40;78.50;;;0.58;62.79;95141.91;5013683;28;20200;-84
2021/01/18 09:11:36;;;;;;;20.15;11.90;;;1.50;78.60;;;0.68;63.28;95141.97;5013493;28;20203;-84
2021/01/18 09:14:06;;;;;;;22.58;13.63;;;1.50;78.60;;;0.73;62.95;95146.78;5029923;28;20197;-84
2021/01/18 09:16:33;;;;;;;21.35;12.82;;;1.60;78.60;;;0.73;63.27;95146.78;5015181;28;20203;-84
2021/01/18 09:19:08;;;;;;;19.42;12.13;;;1.70;78.70;;;0.76;63.01;95151.72;5064671;28;20225;-84
2021/01/18 09:21:36;;;;;;;17.65;10.82;;;1.70;78.70;;;0.81;63.10;95159.88;5051504;28;20192;-84
2021/01/18 09:24:09;;;;;;;19.48;11.25;;;1.70;78.70;;;0.79;63.37;95144.53;5023987;28;20462;-84
2021/01/18 09:26:36;;;;;;;19.25;11.40;;;1.80;78.80;;;0.93;63.59;95150.31;5031714;28;20204;-84
2021/01/18 09:29:03;;;;;;;19.23;11.90;;;1.80;78.80;;;0.97;63.35;95156.84;5026195;28;20197;-84
2021/01/18 09:31:30;;;;;;;23.52;13.15;;;1.90;78.90;;;1.03;63.35;95161.53;5050791;28;20223;-84
2021/01/18 09:34:10;;;;;;;19.90;12.02;;;1.90;78.90;;;1.05;63.56;95151.06;5017605;28;20199;-84
2021/01/18 09:36:40;;;;;;;21.15;12.40;;;2.00;78.90;;;1.12;63.45;95159.94;5008816;28;20215;-83
2021/01/18 09:39:19;;;;;;;23.08;12.95;;;2.00;79.00;;;1.15;63.68;95167.44;5051739;28;20227;-84
2021/01/18 09:42:06;;;;;;;20.13;11.82;;;2.10;79.00;;;1.11;63.40;95148.78;5051816;28;20717;-84
2021/01/18 09:44:33;;;;;;;18.50;11.73;;;2.10;79.00;;;1.24;63.56;95160.69;5044363;28;20224;-85
2021/01/18 09:47:00;;;;;;;19.95;12.15;;;2.10;79.80;;;1.32;64.06;95153.13;5035232;28;20197;-84
2021/01/18 09:49:28;;;;;;;19.90;12.73;;;2.20;79.10;;;1.40;63.67;95152.47;5035927;28;20232;-85
2021/01/18 09:51:57;;;;;;;19.83;12.75;;;2.30;79.10;;;1.48;63.53;95157.81;5019999;28;20208;-85
2021/01/18 09:54:25;;;;;;;19.00;11.82;;;2.30;79.10;;;1.57;63.43;95153.63;5052560;28;20238;-84
2021/01/18 09:56:54;;;;;;;24.20;13.50;;;2.40;79.20;;;1.59;63.46;95159.50;5035105;28;20208;-84
2021/01/18 09:59:23;;;;;;;22.63;12.98;;;2.40;79.20;;;1.66;63.35;95152.00;5034738;28;20613;-84
2021/01/18 10:01:51;;;;;;;22.67;12.93;;;2.50;79.20;;;1.71;63.83;95157.59;5051309;28;20322;-84
2021/01/18 10:04:24;;;;;;;19.80;12.52;;;2.50;79.20;;;1.74;63.99;95159.94;5050647;28;20204;-84
2021/01/18 10:07:03;;;;;;;18.98;12.65;;;2.60;79.30;;;1.74;63.56;95155.56;5035578;28;20589;-84
2021/01/18 10:09:34;;;;;;;22.33;13.38;;;2.60;79.30;;;1.79;63.44;95159.56;5052350;28;20289;-84
2021/01/18 10:12:04;;;;;;;22.23;13.60;;;2.70;79.40;;;1.80;63.57;95154.25;5052000;28;20271;-84
2021/01/18 10:14:31;;;;;;;19.85;11.88;;;2.70;79.40;;;1.85;63.84;95153.84;5034405;28;20223;-84
2021/01/18 10:17:09;;;;;;;22.40;13.55;;;2.70;79.30;;;1.85;63.56;95154.66;5029730;28;20196;-84
2021/01/18 10:19:40;;;;;;;19.77;12.20;;;2.80;79.30;;;1.91;63.44;95153.31;5063699;28;20273;-85
2021/01/18 10:22:18;;;;;;;23.48;13.90;;;2.80;79.40;;;1.94;63.25;95155.63;5049645;28;20368;-85
2021/01/18 10:24:59;;;;;;;22.15;12.77;;;2.80;79.00;;;1.95;63.51;95159.84;5016830;28;20227;-84
2021/01/18 10:27:28;;;;;;;22.10;13.05;;;2.80;80.00;;;2.00;63.61;95159.47;5033428;28;20683;-85
2021/01/18 10:30:21;;;;;;;22.38;13.77;;;2.90;79.40;;;2.00;63.52;95151.72;5033238;28;20688;-85
2021/01/18 10:32:52;;;;;;;22.65;13.48;;;2.90;79.30;;;2.09;63.65;95163.84;5050502;28;20188;-84
2021/01/18 10:35:31;;;;;;;22.25;13.10;;;2.90;79.50;;;2.18;63.77;95162.22;5034903;28;20258;-84
2021/01/18 10:38:22;;;;;;;23.33;12.93;;;3.10;79.40;;;2.24;63.49;95161.69;5051994;28;20268;-83
2021/01/18 10:41:06;;;;;;;23.95;14.00;;;3.00;79.30;;;2.25;63.23;95171.09;5051447;28;20230;-85